createdAt,value
2023-03-29T00:00:31.372Z,101109.38
2023-03-29T00:02:57.810Z,101099.13
2023-03-29T00:05:25.349Z,101098.06
2023-03-29T00:08:01.736Z,101104.06
2023-03-29T00:10:28.117Z,101103.63
2023-03-29T00:12:54.482Z,101106.00
2023-03-29T00:15:20.990Z,101096.88
2023-03-29T00:17:47.398Z,101099.63
2023-03-29T00:20:13.797Z,101104.41
2023-03-29T00:22:42.082Z,101092.19
2023-03-29T00:25:08.615Z,101085.44
2023-03-29T00:27:34.981Z,101083.78
2023-03-29T00:30:04.061Z,101081.03
2023-03-29T00:32:30.895Z,101080.19
2023-03-29T00:34:57.317Z,101083.78
2023-03-29T00:37:26.765Z,101073.81
2023-03-29T00:39:53.182Z,101079.22
2023-03-29T00:42:20.223Z,101079.66
2023-03-29T00:44:46.723Z,101069.19
2023-03-29T00:47:13.210Z,101072.25
2023-03-29T00:49:39.816Z,101056.81
2023-03-29T00:52:06.560Z,101063.88
2023-03-29T00:54:32.973Z,101062.81
2023-03-29T00:57:03.912Z,101067.66
2023-03-29T00:59:32.708Z,101065.66
2023-03-29T01:01:59.825Z,101066.53
2023-03-29T01:04:29.349Z,101068.09
2023-03-29T01:06:55.936Z,101058.59
2023-03-29T01:09:22.528Z,101053.59
2023-03-29T01:11:49.785Z,101044.16
2023-03-29T01:14:16.198Z,101039.13
2023-03-29T01:16:42.906Z,101050.41
2023-03-29T01:19:09.443Z,101041.59
2023-03-29T01:21:36.272Z,101040.63
2023-03-29T01:24:07.168Z,101039.44
2023-03-29T01:26:33.788Z,101038.41
2023-03-29T01:29:00.137Z,101033.69
2023-03-29T01:31:26.494Z,101028.31
2023-03-29T01:33:52.880Z,101026.22
2023-03-29T01:36:19.308Z,101025.63
2023-03-29T01:38:45.797Z,101022.84
2023-03-29T01:41:12.522Z,101009.84
2023-03-29T01:43:38.882Z,101016.94
2023-03-29T01:46:05.269Z,101021.34
2023-03-29T01:48:32.162Z,101021.63
2023-03-29T01:50:59.864Z,101018.31
2023-03-29T01:53:26.456Z,101009.66
2023-03-29T01:55:52.869Z,101013.22
2023-03-29T01:58:19.287Z,101008.00
2023-03-29T02:00:45.893Z,101010.97
2023-03-29T02:03:14.911Z,101004.03
2023-03-29T02:05:42.342Z,101001.91
2023-03-29T02:08:08.808Z,100999.28
2023-03-29T02:10:35.190Z,100994.94
2023-03-29T02:13:03.068Z,100983.00
2023-03-29T02:15:32.727Z,100984.41
2023-03-29T02:17:59.188Z,100980.91
2023-03-29T02:20:25.768Z,100984.69
2023-03-29T02:22:52.590Z,100980.38
2023-03-29T02:25:19.013Z,100970.69
2023-03-29T02:27:45.898Z,100978.50
2023-03-29T02:30:12.354Z,100963.00
2023-03-29T02:32:40.559Z,100966.28
2023-03-29T02:35:07.065Z,100957.88
2023-03-29T02:37:34.427Z,100967.75
2023-03-29T02:40:00.888Z,100960.88
2023-03-29T02:42:27.289Z,100958.00
2023-03-29T02:44:53.958Z,100962.09
2023-03-29T02:47:20.514Z,100955.94
2023-03-29T02:49:46.912Z,100959.84
2023-03-29T02:52:13.352Z,100955.75
2023-03-29T02:54:43.609Z,100956.25
2023-03-29T02:57:10.299Z,100960.66
2023-03-29T02:59:38.434Z,100958.72
2023-03-29T03:02:05.244Z,100972.03
2023-03-29T03:04:31.936Z,100957.81
2023-03-29T03:06:58.329Z,100961.31
2023-03-29T03:09:25.453Z,100960.34
2023-03-29T03:11:52.443Z,100945.94
2023-03-29T03:14:22.771Z,100959.09
2023-03-29T03:16:49.599Z,100951.88
2023-03-29T03:19:16.028Z,100941.84
2023-03-29T03:21:44.117Z,100946.78
2023-03-29T03:24:10.514Z,100940.31
2023-03-29T03:26:38.824Z,100930.88
2023-03-29T03:29:06.590Z,100927.56
2023-03-29T03:31:53.831Z,100931.34
2023-03-29T03:34:49.712Z,100931.97
2023-03-29T03:37:16.107Z,100933.41
2023-03-29T03:39:43.436Z,100937.06
2023-03-29T03:42:10.652Z,100934.06
2023-03-29T03:44:41.845Z,100932.69
2023-03-29T03:47:21.692Z,100932.78
2023-03-29T03:49:48.313Z,100936.72
2023-03-29T03:52:17.365Z,100935.50
2023-03-29T03:54:46.546Z,100941.75
2023-03-29T03:57:37.351Z,100945.38
2023-03-29T04:00:09.646Z,100943.31
2023-03-29T04:02:39.091Z,100937.19
2023-03-29T04:05:05.583Z,100928.38
2023-03-29T04:07:36.741Z,100936.25
2023-03-29T04:10:19.193Z,100934.31
2023-03-29T04:12:52.209Z,100931.06
2023-03-29T04:15:20.690Z,100928.63
2023-03-29T04:17:54.812Z,100933.72
2023-03-29T04:20:32.685Z,100931.88
2023-03-29T04:23:00.031Z,100932.34
2023-03-29T04:25:28.413Z,100926.84
2023-03-29T04:27:57.702Z,100937.06
2023-03-29T04:30:34.828Z,100922.28
2023-03-29T04:33:10.351Z,100923.31
2023-03-29T04:35:39.844Z,100919.91
2023-03-29T04:38:11.297Z,100916.56
2023-03-29T04:40:38.704Z,100921.59
2023-03-29T04:43:29.815Z,100920.69
2023-03-29T04:46:07.854Z,100921.06
2023-03-29T04:48:50.797Z,100908.13
2023-03-29T04:51:22.725Z,100897.06
2023-03-29T04:53:53.460Z,100906.44
2023-03-29T04:56:23.021Z,100899.50
2023-03-29T04:59:15.368Z,100898.25
2023-03-29T05:01:41.916Z,100892.56
2023-03-29T05:04:12.039Z,100886.31
2023-03-29T05:06:45.141Z,100888.75
2023-03-29T05:09:11.535Z,100895.59
2023-03-29T05:11:45.388Z,100887.22
2023-03-29T05:14:12.800Z,100899.38
2023-03-29T05:16:39.307Z,100889.50
2023-03-29T05:19:05.853Z,100887.78
2023-03-29T05:21:35.844Z,100896.50
2023-03-29T05:24:06.559Z,100886.75
2023-03-29T05:26:54.670Z,100886.56
2023-03-29T05:29:21.682Z,100883.34
2023-03-29T05:31:54.124Z,100890.59
2023-03-29T05:34:20.669Z,100878.38
2023-03-29T05:36:51.825Z,100884.63
2023-03-29T05:39:19.347Z,100873.41
2023-03-29T05:41:46.496Z,100872.44
2023-03-29T05:44:39.017Z,100877.47
2023-03-29T05:47:13.628Z,100874.00
2023-03-29T05:49:40.103Z,100873.38
2023-03-29T05:52:10.849Z,100866.06
2023-03-29T05:54:38.133Z,100873.19
2023-03-29T05:57:06.136Z,100873.59
2023-03-29T05:59:33.780Z,100874.00
2023-03-29T06:02:00.634Z,100873.09
2023-03-29T06:04:27.166Z,100870.69
2023-03-29T06:07:14.795Z,100866.88
2023-03-29T06:09:45.610Z,100873.44
2023-03-29T06:12:12.302Z,100863.91
2023-03-29T06:14:44.141Z,100860.34
2023-03-29T06:17:26.530Z,100860.78
2023-03-29T06:19:53.540Z,100861.56
2023-03-29T06:22:23.697Z,100866.66
2023-03-29T06:24:50.241Z,100871.00
2023-03-29T06:27:23.724Z,100874.34
2023-03-29T06:29:50.599Z,100870.75
2023-03-29T06:32:17.644Z,100873.59
2023-03-29T06:34:50.876Z,100878.16
2023-03-29T06:37:32.490Z,100879.38
2023-03-29T06:40:15.060Z,100888.25
2023-03-29T06:42:43.103Z,100890.13
2023-03-29T06:45:16.016Z,100880.66
2023-03-29T06:47:47.079Z,100887.59
2023-03-29T06:50:14.653Z,100880.63
2023-03-29T06:52:53.846Z,100883.22
2023-03-29T06:55:21.707Z,100890.56
2023-03-29T06:57:49.110Z,100886.69
2023-03-29T07:00:27.786Z,100891.72
2023-03-29T07:03:23.276Z,100898.59
2023-03-29T07:05:53.033Z,100895.94
2023-03-29T07:08:21.307Z,100893.16
2023-03-29T07:10:59.545Z,100894.84
2023-03-29T07:13:44.580Z,100903.13
2023-03-29T07:16:14.467Z,100906.56
2023-03-29T07:18:55.158Z,100907.25
2023-03-29T07:21:39.966Z,100903.78
2023-03-29T07:24:06.834Z,100897.09
2023-03-29T07:26:34.961Z,100892.84
2023-03-29T07:29:01.398Z,100903.13
2023-03-29T07:31:29.597Z,100900.84
2023-03-29T07:34:12.952Z,100912.03
2023-03-29T07:36:39.957Z,100905.13
2023-03-29T07:39:06.556Z,100904.25
2023-03-29T07:41:36.055Z,100893.38
2023-03-29T07:44:11.624Z,100896.25
2023-03-29T07:46:38.468Z,100892.00
2023-03-29T07:49:05.611Z,100901.19
2023-03-29T07:51:32.103Z,100900.56
2023-03-29T07:54:06.706Z,100897.91
2023-03-29T07:57:02.265Z,100906.81
2023-03-29T07:59:39.547Z,100917.09
2023-03-29T08:02:19.219Z,100911.44
2023-03-29T08:04:48.963Z,100912.72
2023-03-29T08:07:18.427Z,100921.75
2023-03-29T08:10:03.600Z,100911.06
2023-03-29T08:12:45.795Z,100917.78
2023-03-29T08:15:13.245Z,100911.09
2023-03-29T08:17:40.824Z,100912.91
2023-03-29T08:20:07.304Z,100904.22
2023-03-29T08:22:33.776Z,100913.22
2023-03-29T08:25:20.421Z,100913.25
2023-03-29T08:27:50.673Z,100915.28
2023-03-29T08:30:28.083Z,100909.66
2023-03-29T08:32:56.469Z,100901.66
2023-03-29T08:35:23.083Z,100901.53
2023-03-29T08:38:02.491Z,100894.66
2023-03-29T08:40:30.036Z,100902.69
2023-03-29T08:43:10.963Z,100905.06
2023-03-29T08:45:55.852Z,100890.66
2023-03-29T08:48:22.460Z,100888.28
2023-03-29T08:50:49.733Z,100889.31
2023-03-29T08:53:16.311Z,100883.97
2023-03-29T08:56:07.436Z,100884.44
2023-03-29T08:58:52.580Z,100881.66
2023-03-29T09:01:19.644Z,100873.81
2023-03-29T09:03:50.590Z,100876.56
2023-03-29T09:06:29.338Z,100886.31
2023-03-29T09:09:07.870Z,100886.50
2023-03-29T09:11:34.312Z,100885.03
2023-03-29T09:14:01.041Z,100895.53
2023-03-29T09:16:27.748Z,100890.69
2023-03-29T09:18:55.214Z,100893.56
2023-03-29T09:21:22.310Z,100896.97
2023-03-29T09:23:49.508Z,100890.97
2023-03-29T09:26:28.920Z,100892.03
2023-03-29T09:29:15.516Z,100883.03
2023-03-29T09:31:42.029Z,100884.97
2023-03-29T09:34:09.038Z,100881.31
2023-03-29T09:36:51.394Z,100872.13
2023-03-29T09:39:19.836Z,100877.50
2023-03-29T09:41:49.531Z,100884.84
2023-03-29T09:46:48.271Z,100882.31
2023-03-29T09:49:17.221Z,100874.19
2023-03-29T09:51:44.190Z,100875.88
2023-03-29T09:54:10.905Z,100871.66
2023-03-29T09:56:59.888Z,100874.22
2023-03-29T09:59:26.385Z,100883.31
2023-03-29T10:01:53.042Z,100889.69
2023-03-29T10:04:21.460Z,100876.47
2023-03-29T10:06:54.704Z,100867.72
2023-03-29T10:09:21.944Z,100865.09
2023-03-29T10:11:51.733Z,100854.38
2023-03-29T10:14:18.414Z,100855.25
2023-03-29T10:16:48.132Z,100842.13
2023-03-29T10:19:15.176Z,100854.56
2023-03-29T10:21:42.324Z,100861.66
2023-03-29T10:24:08.790Z,100856.38
2023-03-29T10:26:36.190Z,100854.56
2023-03-29T10:29:02.650Z,100850.13
2023-03-29T10:31:33.068Z,100852.81
2023-03-29T10:33:59.630Z,100848.38
2023-03-29T10:36:26.350Z,100858.13
2023-03-29T10:38:52.751Z,100856.38
2023-03-29T10:41:19.166Z,100851.03
2023-03-29T10:43:46.177Z,100853.69
2023-03-29T10:46:17.743Z,100853.69
2023-03-29T10:48:44.535Z,100838.59
2023-03-29T10:51:14.001Z,100840.41
2023-03-29T10:53:41.137Z,100850.13
2023-03-29T10:56:08.121Z,100849.28
2023-03-29T10:58:34.567Z,100847.47
2023-03-29T11:01:01.731Z,100843.94
2023-03-29T11:03:28.655Z,100827.94
2023-03-29T11:05:55.155Z,100826.19
2023-03-29T11:08:21.533Z,100822.59
2023-03-29T11:10:48.174Z,100814.59
2023-03-29T11:13:14.549Z,100814.63
2023-03-29T11:15:41.038Z,100813.72
2023-03-29T11:18:07.634Z,100812.75
2023-03-29T11:20:34.047Z,100821.72
2023-03-29T11:23:00.589Z,100824.38
2023-03-29T11:25:29.074Z,100822.56
2023-03-29T11:27:56.151Z,100822.63
2023-03-29T11:30:23.888Z,100827.94
2023-03-29T11:32:50.857Z,100818.16
2023-03-29T11:35:17.699Z,100818.19
2023-03-29T11:37:44.141Z,100803.06
2023-03-29T11:40:10.523Z,100800.41
2023-03-29T11:42:37.089Z,100798.59
2023-03-29T11:45:04.896Z,100788.78
2023-03-29T11:47:31.342Z,100785.22
2023-03-29T11:49:57.814Z,100785.22
2023-03-29T11:52:24.397Z,100783.38
2023-03-29T11:54:51.535Z,100777.25
2023-03-29T11:57:17.928Z,100770.94
2023-03-29T11:59:44.390Z,100776.31
2023-03-29T12:02:12.272Z,100773.59
2023-03-29T12:04:40.614Z,100772.66
2023-03-29T12:07:07.038Z,100771.00
2023-03-29T12:09:34.139Z,100771.00
2023-03-29T12:12:00.531Z,100769.78
2023-03-29T12:14:28.201Z,100759.22
2023-03-29T12:16:54.875Z,100764.47
2023-03-29T12:19:21.322Z,100769.66
2023-03-29T12:21:47.940Z,100744.28
2023-03-29T12:24:16.363Z,100753.19
2023-03-29T12:26:43.023Z,100741.53
2023-03-29T12:29:10.264Z,100746.50
2023-03-29T12:31:36.845Z,100746.44
2023-03-29T12:34:03.416Z,100747.31
2023-03-29T12:36:50.272Z,100749.84
2023-03-29T12:39:36.931Z,100756.25
2023-03-29T12:42:41.865Z,100759.53
2023-03-29T12:45:23.457Z,100745.41
2023-03-29T12:47:50.246Z,100749.06
2023-03-29T12:50:16.685Z,100746.44
2023-03-29T12:52:43.177Z,100740.66
2023-03-29T12:55:09.785Z,100740.16
2023-03-29T12:57:36.199Z,100742.81
2023-03-29T13:00:02.667Z,100743.94
2023-03-29T13:02:29.072Z,100735.63
2023-03-29T13:04:55.610Z,100733.91
2023-03-29T13:07:22.234Z,100734.72
2023-03-29T13:09:48.598Z,100741.44
2023-03-29T13:12:15.814Z,100733.22
2023-03-29T13:14:42.817Z,100737.47
2023-03-29T13:17:18.102Z,100723.50
2023-03-29T13:19:45.765Z,100722.75
2023-03-29T13:22:12.262Z,100711.81
2023-03-29T13:24:38.632Z,100708.09
2023-03-29T13:27:05.214Z,100708.91
2023-03-29T13:29:31.546Z,100716.78
2023-03-29T13:31:57.896Z,100717.63
2023-03-29T13:34:24.224Z,100706.31
2023-03-29T13:36:50.615Z,100712.91
2023-03-29T13:39:17.135Z,100699.47
2023-03-29T13:41:44.224Z,100709.31
2023-03-29T13:44:10.599Z,100696.06
2023-03-29T13:46:41.054Z,100693.78
2023-03-29T13:49:07.669Z,100713.00
2023-03-29T13:51:34.211Z,100696.81
2023-03-29T13:54:00.900Z,100689.41
2023-03-29T13:56:27.623Z,100675.13
2023-03-29T13:58:53.992Z,100668.03
2023-03-29T14:01:20.779Z,100673.44
2023-03-29T14:03:47.512Z,100661.56
2023-03-29T14:06:14.015Z,100652.38
2023-03-29T14:08:40.606Z,100653.31
2023-03-29T14:11:07.083Z,100648.25
2023-03-29T14:13:33.452Z,100645.72
2023-03-29T14:16:02.854Z,100646.44
2023-03-29T14:18:30.508Z,100639.91
2023-03-29T14:20:57.234Z,100639.31
2023-03-29T14:23:23.856Z,100638.84
2023-03-29T14:25:50.286Z,100638.75
2023-03-29T14:28:17.144Z,100631.63
2023-03-29T14:30:43.614Z,100630.34
2023-03-29T14:33:10.074Z,100627.66
2023-03-29T14:35:36.953Z,100624.13
2023-03-29T14:38:03.935Z,100626.13
2023-03-29T14:40:30.850Z,100620.06
2023-03-29T14:42:57.352Z,100620.78
2023-03-29T14:45:24.081Z,100619.88
2023-03-29T14:47:50.701Z,100633.97
2023-03-29T14:50:17.184Z,100622.38
2023-03-29T14:52:46.390Z,100625.56
2023-03-29T14:55:14.105Z,100617.47
2023-03-29T14:57:40.477Z,100620.13
2023-03-29T15:00:08.883Z,100618.44
2023-03-29T15:02:35.426Z,100614.75
2023-03-29T15:05:05.101Z,100609.72
2023-03-29T15:07:31.638Z,100606.63
2023-03-29T15:09:58.549Z,100597.97
2023-03-29T15:12:24.941Z,100599.31
2023-03-29T15:14:51.672Z,100589.19
2023-03-29T15:17:18.059Z,100576.75
2023-03-29T15:19:44.465Z,100579.44
2023-03-29T15:22:11.283Z,100567.59
2023-03-29T15:24:37.749Z,100571.75
2023-03-29T15:27:04.238Z,100567.41
2023-03-29T15:29:30.578Z,100569.25
2023-03-29T15:31:57.022Z,100562.31
2023-03-29T15:34:23.955Z,100566.84
2023-03-29T15:36:50.529Z,100560.78
2023-03-29T15:39:17.359Z,100560.03
2023-03-29T15:41:43.781Z,100554.75
2023-03-29T15:44:10.234Z,100551.94
2023-03-29T15:46:36.958Z,100549.09
2023-03-29T15:49:04.968Z,100542.00
2023-03-29T15:51:31.445Z,100542.00
2023-03-29T15:53:57.752Z,100531.31
2023-03-29T15:56:24.323Z,100519.88
2023-03-29T15:58:51.041Z,100515.25
2023-03-29T16:01:19.215Z,100509.97
2023-03-29T16:03:47.858Z,100518.53
2023-03-29T16:06:14.637Z,100502.69
2023-03-29T16:08:41.873Z,100505.66
2023-03-29T16:11:08.462Z,100494.72
2023-03-29T16:13:34.851Z,100498.38
2023-03-29T16:16:02.185Z,100495.59
2023-03-29T16:18:28.898Z,100492.72
2023-03-29T16:20:57.791Z,100483.28
2023-03-29T16:23:24.597Z,100482.28
2023-03-29T16:25:51.209Z,100484.28
2023-03-29T16:28:17.832Z,100484.72
2023-03-29T16:30:44.344Z,100474.72
2023-03-29T16:33:11.263Z,100475.97
2023-03-29T16:35:38.315Z,100473.44
2023-03-29T16:38:05.033Z,100458.97
2023-03-29T16:40:37.420Z,100457.91
2023-03-29T16:43:04.583Z,100451.53
2023-03-29T16:45:31.130Z,100452.41
2023-03-29T16:47:57.719Z,100450.50
2023-03-29T16:50:24.702Z,100456.28
2023-03-29T16:52:54.077Z,100446.22
2023-03-29T16:55:20.594Z,100447.84
2023-03-29T16:57:47.442Z,100445.56
2023-03-29T17:00:16.996Z,100443.13
2023-03-29T17:02:43.598Z,100440.03
2023-03-29T17:05:10.314Z,100440.31
2023-03-29T17:07:36.771Z,100440.13
2023-03-29T17:10:04.778Z,100434.66
2023-03-29T17:12:31.170Z,100424.06
2023-03-29T17:14:57.710Z,100416.69
2023-03-29T17:17:24.187Z,100422.13
2023-03-29T17:19:51.208Z,100429.69
2023-03-29T17:22:17.614Z,100435.31
2023-03-29T17:24:44.006Z,100431.44
2023-03-29T17:27:10.404Z,100435.69
2023-03-29T17:29:36.823Z,100430.69
2023-03-29T17:32:03.206Z,100428.19
2023-03-29T17:34:29.979Z,100425.41
2023-03-29T17:36:56.434Z,100420.81
2023-03-29T17:39:25.140Z,100428.06
2023-03-29T17:41:51.686Z,100421.75
2023-03-29T17:44:18.279Z,100414.81
2023-03-29T17:46:44.799Z,100405.88
2023-03-29T17:49:11.340Z,100405.94
2023-03-29T17:51:37.903Z,100414.84
2023-03-29T17:54:04.460Z,100403.72
2023-03-29T17:56:31.915Z,100405.41
2023-03-29T17:58:58.628Z,100401.06
2023-03-29T18:01:25.237Z,100401.53
2023-03-29T18:03:51.766Z,100396.38
2023-03-29T18:06:20.244Z,100389.19
2023-03-29T18:08:46.610Z,100388.22
2023-03-29T18:11:13.873Z,100395.69
2023-03-29T18:13:40.353Z,100381.25
2023-03-29T18:16:07.102Z,100383.91
2023-03-29T18:18:33.754Z,100380.28
2023-03-29T18:21:00.690Z,100383.28
2023-03-29T18:23:27.082Z,100383.91
2023-03-29T18:25:53.441Z,100372.81
2023-03-29T18:28:21.377Z,100378.38
2023-03-29T18:30:48.623Z,100371.41
2023-03-29T18:33:15.566Z,100373.97
2023-03-29T18:35:42.553Z,100381.00
2023-03-29T18:38:08.928Z,100367.63
2023-03-29T18:40:35.419Z,100375.41
2023-03-29T18:43:01.835Z,100378.00
2023-03-29T18:45:28.321Z,100373.81
2023-03-29T18:47:54.701Z,100374.84
2023-03-29T18:50:21.160Z,100361.47
2023-03-29T18:52:47.575Z,100363.53
2023-03-29T18:55:13.953Z,100352.84
2023-03-29T18:57:41.027Z,100354.59
2023-03-29T19:00:11.949Z,100364.94
2023-03-29T19:02:38.394Z,100358.09
2023-03-29T19:05:04.886Z,100362.94
2023-03-29T19:07:31.460Z,100355.91
2023-03-29T19:09:58.159Z,100355.72
2023-03-29T19:12:24.657Z,100349.34
2023-03-29T19:14:51.073Z,100352.59
2023-03-29T19:17:17.424Z,100346.44
2023-03-29T19:19:44.381Z,100346.69
2023-03-29T19:22:10.932Z,100342.44
2023-03-29T19:24:37.309Z,100350.84
2023-03-29T19:27:03.811Z,100345.66
2023-03-29T19:29:30.665Z,100342.94
2023-03-29T19:31:57.143Z,100344.03
2023-03-29T19:34:24.283Z,100340.16
2023-03-29T19:36:50.808Z,100337.47
2023-03-29T19:39:17.373Z,100330.47
2023-03-29T19:41:44.152Z,100320.56
2023-03-29T19:44:11.102Z,100319.63
2023-03-29T19:46:37.605Z,100318.94
2023-03-29T19:49:05.685Z,100316.38
2023-03-29T19:51:32.490Z,100308.84
2023-03-29T19:53:58.865Z,100308.34
2023-03-29T19:56:25.704Z,100307.94
2023-03-29T19:58:52.323Z,100314.78
2023-03-29T20:01:21.742Z,100314.28
2023-03-29T20:03:49.494Z,100304.22
2023-03-29T20:06:16.598Z,100309.03
2023-03-29T20:08:43.069Z,100302.81
2023-03-29T20:11:10.469Z,100302.47
2023-03-29T20:13:39.912Z,100298.25
2023-03-29T20:16:06.333Z,100296.38
2023-03-29T20:18:32.791Z,100293.16
2023-03-29T20:20:59.672Z,100289.47
2023-03-29T20:23:26.661Z,100290.84
2023-03-29T20:25:53.426Z,100280.91
2023-03-29T20:28:20.141Z,100283.38
2023-03-29T20:30:51.016Z,100283.28
2023-03-29T20:33:17.466Z,100279.56
2023-03-29T20:35:44.246Z,100274.47
2023-03-29T20:38:11.761Z,100273.47
2023-03-29T20:40:38.687Z,100262.91
2023-03-29T20:43:05.109Z,100264.78
2023-03-29T20:45:37.272Z,100255.59
2023-03-29T20:48:09.324Z,100248.94
2023-03-29T20:50:38.323Z,100258.81
2023-03-29T20:53:06.231Z,100251.31
2023-03-29T20:55:33.336Z,100248.19
2023-03-29T20:57:59.749Z,100251.41
2023-03-29T21:00:26.110Z,100248.50
2023-03-29T21:02:52.968Z,100244.38
2023-03-29T21:05:20.073Z,100241.47
2023-03-29T21:07:48.086Z,100226.69
2023-03-29T21:10:14.514Z,100223.00
2023-03-29T21:12:41.106Z,100221.75
2023-03-29T21:15:07.981Z,100217.59
2023-03-29T21:17:34.375Z,100207.13
2023-03-29T21:20:02.574Z,100210.88
2023-03-29T21:22:29.337Z,100212.25
2023-03-29T21:24:56.424Z,100186.63
2023-03-29T21:27:22.921Z,100191.78
2023-03-29T21:29:49.528Z,100179.28
2023-03-29T21:32:15.920Z,100188.41
2023-03-29T21:34:42.292Z,100185.69
2023-03-29T21:37:08.680Z,100179.25
2023-03-29T21:39:35.019Z,100177.00
2023-03-29T21:42:01.658Z,100176.28
2023-03-29T21:44:28.567Z,100164.16
2023-03-29T21:46:54.984Z,100166.47
2023-03-29T21:49:21.425Z,100154.91
2023-03-29T21:51:48.111Z,100151.59
2023-03-29T21:54:14.505Z,100156.50
2023-03-29T21:56:41.098Z,100168.63
2023-03-29T21:59:07.468Z,100173.59
2023-03-29T22:01:34.001Z,100162.59
2023-03-29T22:04:00.491Z,100172.88
2023-03-29T22:06:27.244Z,100175.63
2023-03-29T22:08:53.636Z,100165.69
2023-03-29T22:11:19.994Z,100164.75
2023-03-29T22:13:46.415Z,100161.66
2023-03-29T22:16:18.897Z,100160.44
2023-03-29T22:18:48.972Z,100174.47
2023-03-29T22:21:15.402Z,100159.22
2023-03-29T22:23:42.223Z,100157.59
2023-03-29T22:26:08.683Z,100159.22
2023-03-29T22:28:35.548Z,100158.03
2023-03-29T22:31:02.185Z,100150.75
2023-03-29T22:33:28.762Z,100146.34
2023-03-29T22:35:56.073Z,100139.84
2023-03-29T22:38:22.453Z,100141.75
2023-03-29T22:40:48.822Z,100131.94
2023-03-29T22:43:15.422Z,100128.53
2023-03-29T22:45:41.845Z,100132.75
2023-03-29T22:48:09.164Z,100135.50
2023-03-29T22:50:35.785Z,100125.13
2023-03-29T22:53:02.144Z,100123.25
2023-03-29T22:55:28.542Z,100123.88
2023-03-29T22:57:54.895Z,100128.50
2023-03-29T23:00:21.285Z,100127.03
2023-03-29T23:02:47.681Z,100130.31
2023-03-29T23:05:14.061Z,100128.09
2023-03-29T23:07:40.419Z,100128.84
2023-03-29T23:10:06.867Z,100115.56
2023-03-29T23:12:33.306Z,100114.59
2023-03-29T23:14:59.723Z,100110.44
2023-03-29T23:17:26.197Z,100111.31
2023-03-29T23:19:52.827Z,100104.72
2023-03-29T23:22:19.227Z,100103.34
2023-03-29T23:24:47.278Z,100103.09
2023-03-29T23:27:13.714Z,100105.66
2023-03-29T23:29:40.087Z,100115.63
2023-03-29T23:32:06.479Z,100102.19
2023-03-29T23:34:33.110Z,100102.19
2023-03-29T23:36:59.687Z,100112.06
2023-03-29T23:39:26.107Z,100105.38
2023-03-29T23:41:52.488Z,100102.81
2023-03-29T23:44:18.864Z,100104.91
2023-03-29T23:46:45.302Z,100103.69
2023-03-29T23:49:12.177Z,100108.31
2023-03-29T23:51:39.099Z,100095.00
2023-03-29T23:54:05.555Z,100090.75
2023-03-29T23:56:31.933Z,100083.47
2023-03-29T23:58:58.343Z,100087.22
